sensor_id;sensor_type;location;lat;lon;timestamp;temperature;humidity
69382;DHT22;56560;50.692;12.844;2023-03-01T00:01:24;-8.10;83.70
69382;DHT22;56560;50.692;12.844;2023-03-01T00:03:50;-8.10;83.30
69382;DHT22;56560;50.692;12.844;2023-03-01T00:06:16;-8.20;83.30
69382;DHT22;56560;50.692;12.844;2023-03-01T00:08:42;-8.20;83.50
69382;DHT22;56560;50.692;12.844;2023-03-01T00:13:37;-8.20;84.30
69382;DHT22;56560;50.692;12.844;2023-03-01T00:16:05;-8.20;84.40
69382;DHT22;56560;50.692;12.844;2023-03-01T00:18:31;-8.20;84.00
69382;DHT22;56560;50.692;12.844;2023-03-01T00:20:57;-8.20;83.90
69382;DHT22;56560;50.692;12.844;2023-03-01T00:23:23;-8.20;83.80
69382;DHT22;56560;50.692;12.844;2023-03-01T00:25:49;-8.20;84.00
69382;DHT22;56560;50.692;12.844;2023-03-01T00:28:15;-8.20;83.20
69382;DHT22;56560;50.692;12.844;2023-03-01T00:30:41;-8.20;82.70
69382;DHT22;56560;50.692;12.844;2023-03-01T00:33:07;-8.30;82.30
69382;DHT22;56560;50.692;12.844;2023-03-01T00:35:33;-8.30;82.20
69382;DHT22;56560;50.692;12.844;2023-03-01T00:37:59;-8.40;82.60
69382;DHT22;56560;50.692;12.844;2023-03-01T00:40:26;-8.40;82.10
69382;DHT22;56560;50.692;12.844;2023-03-01T00:42:52;-8.40;82.00
69382;DHT22;56560;50.692;12.844;2023-03-01T00:45:18;-8.40;82.20
69382;DHT22;56560;50.692;12.844;2023-03-01T00:47:43;-8.40;82.50
69382;DHT22;56560;50.692;12.844;2023-03-01T00:50:10;-8.40;82.30
69382;DHT22;56560;50.692;12.844;2023-03-01T00:52:36;-8.50;81.60
69382;DHT22;56560;50.692;12.844;2023-03-01T00:55:03;-8.50;81.70
69382;DHT22;56560;50.692;12.844;2023-03-01T00:57:29;-8.60;81.90
69382;DHT22;56560;50.692;12.844;2023-03-01T00:59:54;-8.60;81.80
69382;DHT22;56560;50.692;12.844;2023-03-01T01:02:20;-8.70;82.50
69382;DHT22;56560;50.692;12.844;2023-03-01T01:04:46;-8.70;83.00
69382;DHT22;56560;50.692;12.844;2023-03-01T01:07:13;-8.70;83.30
69382;DHT22;56560;50.692;12.844;2023-03-01T01:09:39;-8.70;83.10
69382;DHT22;56560;50.692;12.844;2023-03-01T01:12:05;-8.70;83.00
69382;DHT22;56560;50.692;12.844;2023-03-01T01:14:30;-8.70;82.40
69382;DHT22;56560;50.692;12.844;2023-03-01T01:16:56;-8.70;81.80
69382;DHT22;56560;50.692;12.844;2023-03-01T01:19:22;-8.80;81.60
69382;DHT22;56560;50.692;12.844;2023-03-01T01:21:48;-8.80;81.60
69382;DHT22;56560;50.692;12.844;2023-03-01T01:24:15;-8.90;81.60
69382;DHT22;56560;50.692;12.844;2023-03-01T01:26:42;-9.00;81.70
69382;DHT22;56560;50.692;12.844;2023-03-01T01:29:08;-9.00;81.90
69382;DHT22;56560;50.692;12.844;2023-03-01T01:31:36;-9.10;82.10
69382;DHT22;56560;50.692;12.844;2023-03-01T01:34:04;-9.10;82.40
69382;DHT22;56560;50.692;12.844;2023-03-01T01:36:31;-9.10;82.40
69382;DHT22;56560;50.692;12.844;2023-03-01T01:38:57;-9.10;82.70
69382;DHT22;56560;50.692;12.844;2023-03-01T01:41:23;-9.10;82.30
69382;DHT22;56560;50.692;12.844;2023-03-01T01:44:10;-9.10;82.20
69382;DHT22;56560;50.692;12.844;2023-03-01T01:46:39;-9.20;82.20
69382;DHT22;56560;50.692;12.844;2023-03-01T01:51:44;-9.30;82.20
69382;DHT22;56560;50.692;12.844;2023-03-01T01:54:23;-9.30;82.30
69382;DHT22;56560;50.692;12.844;2023-03-01T01:56:58;-9.30;82.20
69382;DHT22;56560;50.692;12.844;2023-03-01T01:59:28;-9.40;82.20
69382;DHT22;56560;50.692;12.844;2023-03-01T02:01:55;-9.40;82.60
69382;DHT22;56560;50.692;12.844;2023-03-01T02:04:22;-9.40;82.50
69382;DHT22;56560;50.692;12.844;2023-03-01T02:07:15;-9.30;82.20
69382;DHT22;56560;50.692;12.844;2023-03-01T02:09:45;-9.30;82.70
69382;DHT22;56560;50.692;12.844;2023-03-01T02:12:13;-9.30;82.40
69382;DHT22;56560;50.692;12.844;2023-03-01T02:14:38;-9.30;82.10
69382;DHT22;56560;50.692;12.844;2023-03-01T02:17:04;-9.40;81.40
69382;DHT22;56560;50.692;12.844;2023-03-01T02:20:16;-9.50;80.90
69382;DHT22;56560;50.692;12.844;2023-03-01T02:22:45;-9.60;81.90
69382;DHT22;56560;50.692;12.844;2023-03-01T02:25:25;-9.60;82.00
69382;DHT22;56560;50.692;12.844;2023-03-01T02:28:18;-9.60;81.90
69382;DHT22;56560;50.692;12.844;2023-03-01T02:30:48;-9.60;82.10
69382;DHT22;56560;50.692;12.844;2023-03-01T02:33:36;-9.70;82.40
69382;DHT22;56560;50.692;12.844;2023-03-01T02:36:15;-9.60;82.80
69382;DHT22;56560;50.692;12.844;2023-03-01T02:38:42;-9.60;81.90
69382;DHT22;56560;50.692;12.844;2023-03-01T02:41:09;-9.60;80.70
69382;DHT22;56560;50.692;12.844;2023-03-01T02:43:36;-9.70;81.30
69382;DHT22;56560;50.692;12.844;2023-03-01T02:46:05;-9.70;82.80
69382;DHT22;56560;50.692;12.844;2023-03-01T02:54:27;-9.70;81.40
69382;DHT22;56560;50.692;12.844;2023-03-01T02:56:53;-9.70;81.10
69382;DHT22;56560;50.692;12.844;2023-03-01T02:59:22;-9.70;80.80
69382;DHT22;56560;50.692;12.844;2023-03-01T03:01:49;-9.70;81.10
69382;DHT22;56560;50.692;12.844;2023-03-01T03:04:16;-9.70;81.10
69382;DHT22;56560;50.692;12.844;2023-03-01T03:06:47;-9.80;81.00
69382;DHT22;56560;50.692;12.844;2023-03-01T03:09:14;-9.90;81.20
69382;DHT22;56560;50.692;12.844;2023-03-01T03:11:40;-9.90;81.70
69382;DHT22;56560;50.692;12.844;2023-03-01T03:14:11;-9.90;80.80
69382;DHT22;56560;50.692;12.844;2023-03-01T03:16:50;-9.90;81.50
69382;DHT22;56560;50.692;12.844;2023-03-01T03:19:17;-10.00;81.40
69382;DHT22;56560;50.692;12.844;2023-03-01T03:21:43;-10.00;81.40
69382;DHT22;56560;50.692;12.844;2023-03-01T03:24:09;-10.00;81.40
69382;DHT22;56560;50.692;12.844;2023-03-01T03:26:35;-10.00;81.60
69382;DHT22;56560;50.692;12.844;2023-03-01T03:29:00;-10.00;81.30
69382;DHT22;56560;50.692;12.844;2023-03-01T03:31:27;-10.00;80.80
69382;DHT22;56560;50.692;12.844;2023-03-01T03:33:53;-10.00;81.30
69382;DHT22;56560;50.692;12.844;2023-03-01T03:36:21;-10.00;82.00
69382;DHT22;56560;50.692;12.844;2023-03-01T03:38:47;-10.00;81.50
69382;DHT22;56560;50.692;12.844;2023-03-01T03:41:14;-10.00;80.80
69382;DHT22;56560;50.692;12.844;2023-03-01T03:43:41;-10.00;79.90
69382;DHT22;56560;50.692;12.844;2023-03-01T03:46:09;-10.00;79.80
69382;DHT22;56560;50.692;12.844;2023-03-01T03:48:36;-10.10;80.20
69382;DHT22;56560;50.692;12.844;2023-03-01T03:51:02;-10.10;80.50
69382;DHT22;56560;50.692;12.844;2023-03-01T03:53:31;-10.10;81.30
69382;DHT22;56560;50.692;12.844;2023-03-01T03:55:56;-10.10;80.90
69382;DHT22;56560;50.692;12.844;2023-03-01T03:58:24;-10.10;80.50
69382;DHT22;56560;50.692;12.844;2023-03-01T04:00:52;-10.10;80.10
69382;DHT22;56560;50.692;12.844;2023-03-01T04:03:19;-10.10;80.00
69382;DHT22;56560;50.692;12.844;2023-03-01T04:05:46;-10.10;79.80
69382;DHT22;56560;50.692;12.844;2023-03-01T04:08:12;-10.20;80.30
69382;DHT22;56560;50.692;12.844;2023-03-01T04:10:41;-10.20;80.90
69382;DHT22;56560;50.692;12.844;2023-03-01T04:13:11;-10.30;82.10
69382;DHT22;56560;50.692;12.844;2023-03-01T04:15:38;-10.30;82.00
69382;DHT22;56560;50.692;12.844;2023-03-01T04:18:04;-10.20;81.00
69382;DHT22;56560;50.692;12.844;2023-03-01T04:20:32;-10.30;81.10
69382;DHT22;56560;50.692;12.844;2023-03-01T04:23:15;-10.30;81.40
69382;DHT22;56560;50.692;12.844;2023-03-01T04:25:52;-10.30;80.50
69382;DHT22;56560;50.692;12.844;2023-03-01T04:28:26;-10.40;81.00
69382;DHT22;56560;50.692;12.844;2023-03-01T04:30:53;-10.40;81.20
69382;DHT22;56560;50.692;12.844;2023-03-01T04:33:19;-10.40;81.10
69382;DHT22;56560;50.692;12.844;2023-03-01T04:35:45;-10.40;80.40
69382;DHT22;56560;50.692;12.844;2023-03-01T04:38:10;-10.40;80.40
69382;DHT22;56560;50.692;12.844;2023-03-01T04:40:36;-10.50;80.90
69382;DHT22;56560;50.692;12.844;2023-03-01T04:43:03;-10.50;81.70
69382;DHT22;56560;50.692;12.844;2023-03-01T04:45:28;-10.40;80.80
69382;DHT22;56560;50.692;12.844;2023-03-01T04:47:54;-10.50;80.00
69382;DHT22;56560;50.692;12.844;2023-03-01T04:50:20;-10.50;80.70
69382;DHT22;56560;50.692;12.844;2023-03-01T04:52:47;-10.50;80.80
69382;DHT22;56560;50.692;12.844;2023-03-01T04:55:13;-10.50;80.90
69382;DHT22;56560;50.692;12.844;2023-03-01T04:57:39;-10.50;80.70
69382;DHT22;56560;50.692;12.844;2023-03-01T05:00:09;-10.50;80.70
69382;DHT22;56560;50.692;12.844;2023-03-01T05:02:57;-10.50;80.90
69382;DHT22;56560;50.692;12.844;2023-03-01T05:05:26;-10.50;80.00
69382;DHT22;56560;50.692;12.844;2023-03-01T05:07:58;-10.60;80.30
69382;DHT22;56560;50.692;12.844;2023-03-01T05:10:25;-10.60;80.80
69382;DHT22;56560;50.692;12.844;2023-03-01T05:12:51;-10.70;80.60
69382;DHT22;56560;50.692;12.844;2023-03-01T05:15:20;-10.70;81.00
69382;DHT22;56560;50.692;12.844;2023-03-01T05:17:51;-10.60;80.80
69382;DHT22;56560;50.692;12.844;2023-03-01T05:20:17;-10.60;81.20
69382;DHT22;56560;50.692;12.844;2023-03-01T05:22:43;-10.50;81.40
69382;DHT22;56560;50.692;12.844;2023-03-01T05:25:09;-10.50;83.20
69382;DHT22;56560;50.692;12.844;2023-03-01T05:27:35;-10.40;83.40
69382;DHT22;56560;50.692;12.844;2023-03-01T05:30:02;-10.40;82.00
69382;DHT22;56560;50.692;12.844;2023-03-01T05:32:40;-10.40;81.40
69382;DHT22;56560;50.692;12.844;2023-03-01T05:35:05;-10.50;81.10
69382;DHT22;56560;50.692;12.844;2023-03-01T05:37:34;-10.50;80.30
69382;DHT22;56560;50.692;12.844;2023-03-01T05:40:01;-10.60;80.60
69382;DHT22;56560;50.692;12.844;2023-03-01T05:42:26;-10.70;78.90
69382;DHT22;56560;50.692;12.844;2023-03-01T05:44:52;-10.70;79.70
69382;DHT22;56560;50.692;12.844;2023-03-01T05:47:18;-10.70;79.70
69382;DHT22;56560;50.692;12.844;2023-03-01T05:49:44;-10.70;79.90
69382;DHT22;56560;50.692;12.844;2023-03-01T05:52:09;-10.70;80.20
69382;DHT22;56560;50.692;12.844;2023-03-01T05:54:35;-10.70;80.30
69382;DHT22;56560;50.692;12.844;2023-03-01T05:57:01;-10.70;80.20
69382;DHT22;56560;50.692;12.844;2023-03-01T05:59:26;-10.70;80.40
69382;DHT22;56560;50.692;12.844;2023-03-01T06:01:52;-10.70;80.50
69382;DHT22;56560;50.692;12.844;2023-03-01T06:04:18;-10.70;80.30
69382;DHT22;56560;50.692;12.844;2023-03-01T06:06:44;-10.70;79.90
69382;DHT22;56560;50.692;12.844;2023-03-01T06:09:09;-10.70;79.60
69382;DHT22;56560;50.692;12.844;2023-03-01T06:11:36;-10.70;79.60
69382;DHT22;56560;50.692;12.844;2023-03-01T06:14:02;-10.60;80.10
69382;DHT22;56560;50.692;12.844;2023-03-01T06:16:28;-10.50;79.70
69382;DHT22;56560;50.692;12.844;2023-03-01T06:18:53;-10.50;79.30
69382;DHT22;56560;50.692;12.844;2023-03-01T06:21:19;-10.50;78.50
69382;DHT22;56560;50.692;12.844;2023-03-01T06:23:45;-10.50;78.70
69382;DHT22;56560;50.692;12.844;2023-03-01T06:26:10;-10.40;78.70
69382;DHT22;56560;50.692;12.844;2023-03-01T06:28:36;-10.30;78.60
69382;DHT22;56560;50.692;12.844;2023-03-01T06:31:02;-10.30;78.20
69382;DHT22;56560;50.692;12.844;2023-03-01T06:33:27;-10.20;78.30
69382;DHT22;56560;50.692;12.844;2023-03-01T06:35:56;-10.20;77.90
69382;DHT22;56560;50.692;12.844;2023-03-01T06:38:23;-10.20;78.00
69382;DHT22;56560;50.692;12.844;2023-03-01T06:40:53;-10.00;77.70
69382;DHT22;56560;50.692;12.844;2023-03-01T06:43:22;-9.90;77.20
69382;DHT22;56560;50.692;12.844;2023-03-01T06:45:49;-9.90;77.30
69382;DHT22;56560;50.692;12.844;2023-03-01T06:48:15;-9.70;77.50
69382;DHT22;56560;50.692;12.844;2023-03-01T06:50:40;-9.40;77.20
69382;DHT22;56560;50.692;12.844;2023-03-01T06:53:06;-9.30;77.20
69382;DHT22;56560;50.692;12.844;2023-03-01T06:55:32;-9.10;75.60
69382;DHT22;56560;50.692;12.844;2023-03-01T06:57:58;-9.00;75.20
69382;DHT22;56560;50.692;12.844;2023-03-01T07:00:25;-8.90;74.70
69382;DHT22;56560;50.692;12.844;2023-03-01T07:02:52;-8.80;74.40
69382;DHT22;56560;50.692;12.844;2023-03-01T07:05:17;-8.70;75.10
69382;DHT22;56560;50.692;12.844;2023-03-01T07:07:43;-8.60;74.40
69382;DHT22;56560;50.692;12.844;2023-03-01T07:10:09;-8.40;74.90
69382;DHT22;56560;50.692;12.844;2023-03-01T07:12:35;-8.20;73.20
69382;DHT22;56560;50.692;12.844;2023-03-01T07:15:01;-8.00;73.60
69382;DHT22;56560;50.692;12.844;2023-03-01T07:17:30;-7.80;73.30
69382;DHT22;56560;50.692;12.844;2023-03-01T07:19:56;-7.50;73.10
69382;DHT22;56560;50.692;12.844;2023-03-01T07:22:22;-7.40;72.50
69382;DHT22;56560;50.692;12.844;2023-03-01T07:24:47;-7.40;71.00
69382;DHT22;56560;50.692;12.844;2023-03-01T07:27:13;-7.50;72.10
69382;DHT22;56560;50.692;12.844;2023-03-01T07:29:39;-7.40;72.60
69382;DHT22;56560;50.692;12.844;2023-03-01T07:32:05;-7.10;72.70
69382;DHT22;56560;50.692;12.844;2023-03-01T07:34:31;-6.80;71.70
69382;DHT22;56560;50.692;12.844;2023-03-01T07:36:57;-6.50;71.80
69382;DHT22;56560;50.692;12.844;2023-03-01T07:39:23;-6.30;71.40
69382;DHT22;56560;50.692;12.844;2023-03-01T07:41:49;-6.10;69.70
69382;DHT22;56560;50.692;12.844;2023-03-01T07:44:15;-6.00;69.50
69382;DHT22;56560;50.692;12.844;2023-03-01T07:46:42;-5.90;69.60
69382;DHT22;56560;50.692;12.844;2023-03-01T07:49:08;-5.70;70.20
69382;DHT22;56560;50.692;12.844;2023-03-01T07:51:34;-5.50;68.80
69382;DHT22;56560;50.692;12.844;2023-03-01T07:53:59;-5.40;69.40
69382;DHT22;56560;50.692;12.844;2023-03-01T07:56:25;-5.10;68.80
69382;DHT22;56560;50.692;12.844;2023-03-01T07:58:50;-4.90;69.10
69382;DHT22;56560;50.692;12.844;2023-03-01T08:01:18;-4.70;68.60
69382;DHT22;56560;50.692;12.844;2023-03-01T08:03:44;-4.50;67.50
69382;DHT22;56560;50.692;12.844;2023-03-01T08:06:11;-4.40;68.40
69382;DHT22;56560;50.692;12.844;2023-03-01T08:08:37;-4.20;68.20
69382;DHT22;56560;50.692;12.844;2023-03-01T08:11:05;-4.10;68.60
69382;DHT22;56560;50.692;12.844;2023-03-01T08:13:32;-3.80;69.10
69382;DHT22;56560;50.692;12.844;2023-03-01T08:16:06;-3.50;68.40
69382;DHT22;56560;50.692;12.844;2023-03-01T08:18:32;-3.30;67.80
69382;DHT22;56560;50.692;12.844;2023-03-01T08:21:08;-3.00;67.80
69382;DHT22;56560;50.692;12.844;2023-03-01T08:23:34;-2.80;67.40
69382;DHT22;56560;50.692;12.844;2023-03-01T08:26:09;-2.50;66.80
69382;DHT22;56560;50.692;12.844;2023-03-01T08:28:35;-2.30;67.10
69382;DHT22;56560;50.692;12.844;2023-03-01T08:31:01;-2.20;67.70
69382;DHT22;56560;50.692;12.844;2023-03-01T08:33:27;-2.00;67.60
69382;DHT22;56560;50.692;12.844;2023-03-01T08:35:52;-1.70;67.30
69382;DHT22;56560;50.692;12.844;2023-03-01T08:38:18;-1.40;66.80
69382;DHT22;56560;50.692;12.844;2023-03-01T08:40:43;-1.20;66.10
69382;DHT22;56560;50.692;12.844;2023-03-01T08:43:09;-1.00;65.70
69382;DHT22;56560;50.692;12.844;2023-03-01T08:45:35;-0.80;65.00
69382;DHT22;56560;50.692;12.844;2023-03-01T08:48:00;-0.60;64.90
69382;DHT22;56560;50.692;12.844;2023-03-01T08:50:26;-0.40;64.70
69382;DHT22;56560;50.692;12.844;2023-03-01T08:52:52;-0.30;63.70
69382;DHT22;56560;50.692;12.844;2023-03-01T08:55:17;0.00;63.60
69382;DHT22;56560;50.692;12.844;2023-03-01T08:57:43;0.10;62.80
69382;DHT22;56560;50.692;12.844;2023-03-01T09:00:10;0.30;62.70
69382;DHT22;56560;50.692;12.844;2023-03-01T09:02:36;0.40;62.40
69382;DHT22;56560;50.692;12.844;2023-03-01T09:05:02;0.60;61.50
69382;DHT22;56560;50.692;12.844;2023-03-01T09:07:28;0.70;61.70
69382;DHT22;56560;50.692;12.844;2023-03-01T09:09:54;0.90;61.20
69382;DHT22;56560;50.692;12.844;2023-03-01T09:12:20;1.00;60.80
69382;DHT22;56560;50.692;12.844;2023-03-01T09:14:46;1.20;60.70
69382;DHT22;56560;50.692;12.844;2023-03-01T09:17:12;1.40;59.30
69382;DHT22;56560;50.692;12.844;2023-03-01T09:19:38;1.50;60.40
69382;DHT22;56560;50.692;12.844;2023-03-01T09:22:04;1.60;60.50
69382;DHT22;56560;50.692;12.844;2023-03-01T09:24:30;1.80;60.50
69382;DHT22;56560;50.692;12.844;2023-03-01T09:26:56;2.00;60.00
69382;DHT22;56560;50.692;12.844;2023-03-01T09:29:22;2.10;59.80
69382;DHT22;56560;50.692;12.844;2023-03-01T09:31:48;2.20;60.30
69382;DHT22;56560;50.692;12.844;2023-03-01T09:34:13;2.40;59.30
69382;DHT22;56560;50.692;12.844;2023-03-01T09:36:41;2.70;59.10
69382;DHT22;56560;50.692;12.844;2023-03-01T09:39:07;3.10;57.60
69382;DHT22;56560;50.692;12.844;2023-03-01T09:42:00;3.40;57.00
69382;DHT22;56560;50.692;12.844;2023-03-01T09:44:53;3.50;56.20
69382;DHT22;56560;50.692;12.844;2023-03-01T09:52:42;3.50;57.00
69382;DHT22;56560;50.692;12.844;2023-03-01T09:55:12;3.70;55.50
69382;DHT22;56560;50.692;12.844;2023-03-01T09:57:55;3.80;55.60
69382;DHT22;56560;50.692;12.844;2023-03-01T10:00:42;3.80;54.50
69382;DHT22;56560;50.692;12.844;2023-03-01T10:03:25;3.80;55.70
69382;DHT22;56560;50.692;12.844;2023-03-01T10:06:14;3.90;54.40
69382;DHT22;56560;50.692;12.844;2023-03-01T10:08:56;4.00;55.40
69382;DHT22;56560;50.692;12.844;2023-03-01T10:11:45;4.10;54.50
69382;DHT22;56560;50.692;12.844;2023-03-01T10:14:32;4.10;53.00
69382;DHT22;56560;50.692;12.844;2023-03-01T10:19:33;4.40;52.10
69382;DHT22;56560;50.692;12.844;2023-03-01T10:22:29;4.70;52.20
69382;DHT22;56560;50.692;12.844;2023-03-01T10:24:59;5.00;51.10
69382;DHT22;56560;50.692;12.844;2023-03-01T10:27:34;5.00;51.60
69382;DHT22;56560;50.692;12.844;2023-03-01T10:30:21;5.20;51.30
69382;DHT22;56560;50.692;12.844;2023-03-01T10:32:51;5.00;52.30
69382;DHT22;56560;50.692;12.844;2023-03-01T10:35:20;5.00;51.90
69382;DHT22;56560;50.692;12.844;2023-03-01T10:37:58;5.10;51.30
69382;DHT22;56560;50.692;12.844;2023-03-01T10:40:27;5.10;51.30
69382;DHT22;56560;50.692;12.844;2023-03-01T10:42:53;5.20;51.00
69382;DHT22;56560;50.692;12.844;2023-03-01T10:45:36;5.40;50.40
69382;DHT22;56560;50.692;12.844;2023-03-01T10:50:34;5.70;49.80
69382;DHT22;56560;50.692;12.844;2023-03-01T10:53:04;5.70;50.20
69382;DHT22;56560;50.692;12.844;2023-03-01T10:55:40;5.90;51.90
69382;DHT22;56560;50.692;12.844;2023-03-01T11:00:47;6.30;49.60
69382;DHT22;56560;50.692;12.844;2023-03-01T11:03:15;6.50;49.40
69382;DHT22;56560;50.692;12.844;2023-03-01T11:08:44;6.60;47.90
69382;DHT22;56560;50.692;12.844;2023-03-01T11:14:18;6.70;47.80
69382;DHT22;56560;50.692;12.844;2023-03-01T11:16:48;6.70;47.70
69382;DHT22;56560;50.692;12.844;2023-03-01T11:19:20;6.70;46.50
69382;DHT22;56560;50.692;12.844;2023-03-01T11:24:26;6.50;49.30
69382;DHT22;56560;50.692;12.844;2023-03-01T11:26:54;6.60;49.40
69382;DHT22;56560;50.692;12.844;2023-03-01T11:29:50;6.60;49.60
69382;DHT22;56560;50.692;12.844;2023-03-01T11:32:19;6.80;49.60
69382;DHT22;56560;50.692;12.844;2023-03-01T11:37:39;6.80;49.20
69382;DHT22;56560;50.692;12.844;2023-03-01T11:40:16;7.00;48.70
69382;DHT22;56560;50.692;12.844;2023-03-01T11:51:21;7.90;47.30
69382;DHT22;56560;50.692;12.844;2023-03-01T11:56:55;9.10;45.70
69382;DHT22;56560;50.692;12.844;2023-03-01T12:04:56;9.90;43.90
69382;DHT22;56560;50.692;12.844;2023-03-01T12:10:28;10.50;41.50
69382;DHT22;56560;50.692;12.844;2023-03-01T12:24:46;12.00;38.90
69382;DHT22;56560;50.692;12.844;2023-03-01T12:33:00;11.10;39.60
69382;DHT22;56560;50.692;12.844;2023-03-01T12:38:42;11.40;40.30
69382;DHT22;56560;50.692;12.844;2023-03-01T12:44:04;12.50;38.40
69382;DHT22;56560;50.692;12.844;2023-03-01T12:49:22;11.80;39.70
69382;DHT22;56560;50.692;12.844;2023-03-01T12:52:02;11.90;40.10
69382;DHT22;56560;50.692;12.844;2023-03-01T12:54:36;12.20;38.70
69382;DHT22;56560;50.692;12.844;2023-03-01T12:57:17;12.30;38.90
69382;DHT22;56560;50.692;12.844;2023-03-01T13:00:16;12.50;39.20
69382;DHT22;56560;50.692;12.844;2023-03-01T13:05:26;12.10;40.10
69382;DHT22;56560;50.692;12.844;2023-03-01T13:07:58;12.00;39.70
69382;DHT22;56560;50.692;12.844;2023-03-01T13:10:29;11.90;39.80
69382;DHT22;56560;50.692;12.844;2023-03-01T13:17:51;11.90;40.00
69382;DHT22;56560;50.692;12.844;2023-03-01T13:20:34;12.00;39.00
69382;DHT22;56560;50.692;12.844;2023-03-01T13:25:34;12.70;37.50
69382;DHT22;56560;50.692;12.844;2023-03-01T13:31:02;12.90;37.30
69382;DHT22;56560;50.692;12.844;2023-03-01T13:35:54;12.90;38.00
69382;DHT22;56560;50.692;12.844;2023-03-01T13:38:46;13.40;37.50
69382;DHT22;56560;50.692;12.844;2023-03-01T13:41:17;13.40;37.00
69382;DHT22;56560;50.692;12.844;2023-03-01T13:46:38;12.90;37.50
69382;DHT22;56560;50.692;12.844;2023-03-01T13:49:04;13.30;38.00
69382;DHT22;56560;50.692;12.844;2023-03-01T13:51:29;13.10;37.60
69382;DHT22;56560;50.692;12.844;2023-03-01T13:53:56;12.90;38.10
69382;DHT22;56560;50.692;12.844;2023-03-01T13:56:28;13.10;37.50
69382;DHT22;56560;50.692;12.844;2023-03-01T13:59:13;13.30;37.60
69382;DHT22;56560;50.692;12.844;2023-03-01T14:01:39;13.40;38.20
69382;DHT22;56560;50.692;12.844;2023-03-01T14:06:51;13.50;37.10
69382;DHT22;56560;50.692;12.844;2023-03-01T14:09:25;13.10;37.90
69382;DHT22;56560;50.692;12.844;2023-03-01T14:14:47;12.90;38.40
69382;DHT22;56560;50.692;12.844;2023-03-01T14:19:40;12.70;38.60
69382;DHT22;56560;50.692;12.844;2023-03-01T14:22:32;12.80;39.00
69382;DHT22;56560;50.692;12.844;2023-03-01T14:25:01;13.10;38.30
69382;DHT22;56560;50.692;12.844;2023-03-01T14:27:34;13.10;38.30
69382;DHT22;56560;50.692;12.844;2023-03-01T14:30:04;13.30;37.90
69382;DHT22;56560;50.692;12.844;2023-03-01T14:32:35;13.20;37.90
69382;DHT22;56560;50.692;12.844;2023-03-01T14:35:01;13.20;37.90
69382;DHT22;56560;50.692;12.844;2023-03-01T14:37:29;12.70;37.70
69382;DHT22;56560;50.692;12.844;2023-03-01T14:39:58;12.60;38.10
69382;DHT22;56560;50.692;12.844;2023-03-01T14:42:26;12.50;38.20
69382;DHT22;56560;50.692;12.844;2023-03-01T14:44:54;12.60;37.90
69382;DHT22;56560;50.692;12.844;2023-03-01T14:47:34;12.80;37.20
69382;DHT22;56560;50.692;12.844;2023-03-01T14:52:38;12.90;37.60
69382;DHT22;56560;50.692;12.844;2023-03-01T14:55:07;13.00;37.30
69382;DHT22;56560;50.692;12.844;2023-03-01T14:57:43;13.10;37.20
69382;DHT22;56560;50.692;12.844;2023-03-01T15:00:18;13.00;37.50
69382;DHT22;56560;50.692;12.844;2023-03-01T15:02:47;13.40;36.40
69382;DHT22;56560;50.692;12.844;2023-03-01T15:05:14;13.70;36.30
69382;DHT22;56560;50.692;12.844;2023-03-01T15:07:42;13.80;36.10
69382;DHT22;56560;50.692;12.844;2023-03-01T15:10:27;14.20;35.50
69382;DHT22;56560;50.692;12.844;2023-03-01T15:12:56;14.20;35.30
69382;DHT22;56560;50.692;12.844;2023-03-01T15:15:45;14.50;35.00
69382;DHT22;56560;50.692;12.844;2023-03-01T15:18:19;14.60;34.70
69382;DHT22;56560;50.692;12.844;2023-03-01T15:20:47;14.90;34.60
69382;DHT22;56560;50.692;12.844;2023-03-01T15:25:44;12.90;36.10
69382;DHT22;56560;50.692;12.844;2023-03-01T15:28:18;10.90;39.70
69382;DHT22;56560;50.692;12.844;2023-03-01T15:30:45;9.30;42.50
69382;DHT22;56560;50.692;12.844;2023-03-01T15:35:59;7.50;45.90
69382;DHT22;56560;50.692;12.844;2023-03-01T15:38:34;6.90;47.70
69382;DHT22;56560;50.692;12.844;2023-03-01T15:41:19;6.30;48.40
69382;DHT22;56560;50.692;12.844;2023-03-01T15:43:47;6.00;50.40
69382;DHT22;56560;50.692;12.844;2023-03-01T15:46:17;5.50;51.00
69382;DHT22;56560;50.692;12.844;2023-03-01T15:48:47;5.10;52.20
69382;DHT22;56560;50.692;12.844;2023-03-01T15:51:15;4.90;52.90
69382;DHT22;56560;50.692;12.844;2023-03-01T15:53:43;4.70;54.70
69382;DHT22;56560;50.692;12.844;2023-03-01T15:56:10;4.50;53.90
69382;DHT22;56560;50.692;12.844;2023-03-01T15:58:38;4.20;55.10
69382;DHT22;56560;50.692;12.844;2023-03-01T16:01:13;4.00;55.60
69382;DHT22;56560;50.692;12.844;2023-03-01T16:03:40;3.70;55.80
69382;DHT22;56560;50.692;12.844;2023-03-01T16:06:05;3.60;57.30
69382;DHT22;56560;50.692;12.844;2023-03-01T16:08:31;3.40;58.80
69382;DHT22;56560;50.692;12.844;2023-03-01T16:10:57;3.30;58.60
69382;DHT22;56560;50.692;12.844;2023-03-01T16:13:26;3.20;59.20
69382;DHT22;56560;50.692;12.844;2023-03-01T16:15:56;3.10;60.70
69382;DHT22;56560;50.692;12.844;2023-03-01T16:18:21;3.00;60.20
69382;DHT22;56560;50.692;12.844;2023-03-01T16:20:47;2.90;61.70
69382;DHT22;56560;50.692;12.844;2023-03-01T16:23:15;2.80;60.90
69382;DHT22;56560;50.692;12.844;2023-03-01T16:25:40;2.60;61.50
69382;DHT22;56560;50.692;12.844;2023-03-01T16:28:10;2.50;63.30
69382;DHT22;56560;50.692;12.844;2023-03-01T16:30:49;2.50;61.90
69382;DHT22;56560;50.692;12.844;2023-03-01T16:33:16;2.40;64.40
69382;DHT22;56560;50.692;12.844;2023-03-01T16:35:47;2.30;62.50
69382;DHT22;56560;50.692;12.844;2023-03-01T16:38:13;2.20;63.80
69382;DHT22;56560;50.692;12.844;2023-03-01T16:40:38;2.10;64.70
69382;DHT22;56560;50.692;12.844;2023-03-01T16:43:06;2.10;64.50
69382;DHT22;56560;50.692;12.844;2023-03-01T16:45:35;2.00;64.60
69382;DHT22;56560;50.692;12.844;2023-03-01T16:48:06;1.90;65.50
69382;DHT22;56560;50.692;12.844;2023-03-01T16:50:31;1.80;65.30
69382;DHT22;56560;50.692;12.844;2023-03-01T16:52:57;1.70;65.20
69382;DHT22;56560;50.692;12.844;2023-03-01T16:55:22;1.60;65.20
69382;DHT22;56560;50.692;12.844;2023-03-01T16:57:48;1.50;67.60
69382;DHT22;56560;50.692;12.844;2023-03-01T17:00:15;1.30;68.00
69382;DHT22;56560;50.692;12.844;2023-03-01T17:02:41;1.20;68.10
69382;DHT22;56560;50.692;12.844;2023-03-01T17:05:07;1.10;68.40
69382;DHT22;56560;50.692;12.844;2023-03-01T17:07:34;1.00;71.10
69382;DHT22;56560;50.692;12.844;2023-03-01T17:10:04;0.90;69.80
69382;DHT22;56560;50.692;12.844;2023-03-01T17:12:30;0.90;70.30
69382;DHT22;56560;50.692;12.844;2023-03-01T17:14:57;0.80;68.70
69382;DHT22;56560;50.692;12.844;2023-03-01T17:17:23;0.80;69.30
69382;DHT22;56560;50.692;12.844;2023-03-01T17:19:48;0.70;68.90
69382;DHT22;56560;50.692;12.844;2023-03-01T17:22:14;0.70;70.00
69382;DHT22;56560;50.692;12.844;2023-03-01T17:24:40;0.70;68.90
69382;DHT22;56560;50.692;12.844;2023-03-01T17:27:07;0.70;70.80